sensor_id;sensor_type;location;lat;lon;timestamp;P1;durP1;ratioP1;P2;durP2;ratioP2
5722;SDS011;2886;49.722;8.612;2023-03-12T00:01:35;4.60;;;3.57;;
5722;SDS011;2886;49.722;8.612;2023-03-12T00:04:03;6.83;;;3.50;;
5722;SDS011;2886;49.722;8.612;2023-03-12T00:06:29;4.27;;;3.57;;
5722;SDS011;2886;49.722;8.612;2023-03-12T00:08:55;5.30;;;3.40;;
5722;SDS011;2886;49.722;8.612;2023-03-12T00:11:21;5.47;;;3.50;;
5722;SDS011;2886;49.722;8.612;2023-03-12T00:16:18;9.40;;;2.87;;
5722;SDS011;2886;49.722;8.612;2023-03-12T00:18:46;6.60;;;3.67;;
5722;SDS011;2886;49.722;8.612;2023-03-12T00:21:13;7.07;;;3.80;;
5722;SDS011;2886;49.722;8.612;2023-03-12T00:23:39;5.10;;;3.77;;
5722;SDS011;2886;49.722;8.612;2023-03-12T00:26:06;10.47;;;4.10;;
5722;SDS011;2886;49.722;8.612;2023-03-12T00:28:34;6.60;;;3.50;;
5722;SDS011;2886;49.722;8.612;2023-03-12T00:31:01;5.70;;;4.03;;
5722;SDS011;2886;49.722;8.612;2023-03-12T00:33:47;5.53;;;3.50;;
5722;SDS011;2886;49.722;8.612;2023-03-12T00:36:16;8.13;;;3.70;;
5722;SDS011;2886;49.722;8.612;2023-03-12T00:38:43;8.80;;;3.90;;
5722;SDS011;2886;49.722;8.612;2023-03-12T00:41:08;5.33;;;3.40;;
5722;SDS011;2886;49.722;8.612;2023-03-12T00:43:34;5.57;;;3.53;;
5722;SDS011;2886;49.722;8.612;2023-03-12T00:46:00;4.50;;;3.30;;
5722;SDS011;2886;49.722;8.612;2023-03-12T00:48:26;5.63;;;3.53;;
5722;SDS011;2886;49.722;8.612;2023-03-12T00:50:51;8.90;;;4.30;;
5722;SDS011;2886;49.722;8.612;2023-03-12T00:53:17;6.00;;;3.10;;
5722;SDS011;2886;49.722;8.612;2023-03-12T00:55:42;5.43;;;3.87;;
5722;SDS011;2886;49.722;8.612;2023-03-12T00:58:08;3.87;;;2.93;;
5722;SDS011;2886;49.722;8.612;2023-03-12T01:00:34;8.00;;;3.67;;
5722;SDS011;2886;49.722;8.612;2023-03-12T01:02:59;11.57;;;3.67;;
5722;SDS011;2886;49.722;8.612;2023-03-12T01:05:25;4.23;;;3.20;;
5722;SDS011;2886;49.722;8.612;2023-03-12T01:07:51;6.10;;;3.67;;
5722;SDS011;2886;49.722;8.612;2023-03-12T01:10:17;3.53;;;3.00;;
5722;SDS011;2886;49.722;8.612;2023-03-12T01:12:44;5.70;;;3.23;;
5722;SDS011;2886;49.722;8.612;2023-03-12T01:15:11;5.07;;;3.47;;
5722;SDS011;2886;49.722;8.612;2023-03-12T01:17:38;5.03;;;3.27;;
5722;SDS011;2886;49.722;8.612;2023-03-12T01:20:04;5.93;;;3.60;;
5722;SDS011;2886;49.722;8.612;2023-03-12T01:22:32;4.90;;;3.70;;
5722;SDS011;2886;49.722;8.612;2023-03-12T01:24:58;3.43;;;3.10;;
5722;SDS011;2886;49.722;8.612;2023-03-12T01:27:24;12.93;;;3.33;;
5722;SDS011;2886;49.722;8.612;2023-03-12T01:29:50;7.00;;;3.20;;
5722;SDS011;2886;49.722;8.612;2023-03-12T01:32:15;4.13;;;3.67;;
5722;SDS011;2886;49.722;8.612;2023-03-12T01:34:41;6.10;;;3.03;;
5722;SDS011;2886;49.722;8.612;2023-03-12T01:37:08;5.30;;;3.50;;
5722;SDS011;2886;49.722;8.612;2023-03-12T01:39:33;6.00;;;3.20;;
5722;SDS011;2886;49.722;8.612;2023-03-12T01:41:59;6.43;;;2.93;;
5722;SDS011;2886;49.722;8.612;2023-03-12T01:44:27;3.50;;;2.87;;
5722;SDS011;2886;49.722;8.612;2023-03-12T01:46:53;4.63;;;3.17;;
5722;SDS011;2886;49.722;8.612;2023-03-12T01:49:29;3.57;;;3.00;;
5722;SDS011;2886;49.722;8.612;2023-03-12T01:56:56;3.13;;;2.70;;
5722;SDS011;2886;49.722;8.612;2023-03-12T01:59:29;4.20;;;3.40;;
5722;SDS011;2886;49.722;8.612;2023-03-12T02:01:57;4.23;;;2.90;;
5722;SDS011;2886;49.722;8.612;2023-03-12T02:04:24;9.80;;;3.33;;
5722;SDS011;2886;49.722;8.612;2023-03-12T02:07:05;5.53;;;2.90;;
5722;SDS011;2886;49.722;8.612;2023-03-12T02:09:35;4.87;;;3.20;;
5722;SDS011;2886;49.722;8.612;2023-03-12T02:12:04;5.00;;;2.73;;
5722;SDS011;2886;49.722;8.612;2023-03-12T02:14:30;7.47;;;3.13;;
5722;SDS011;2886;49.722;8.612;2023-03-12T02:16:56;4.57;;;2.97;;
5722;SDS011;2886;49.722;8.612;2023-03-12T02:22:33;3.90;;;2.60;;
5722;SDS011;2886;49.722;8.612;2023-03-12T02:27:42;3.40;;;2.97;;
5722;SDS011;2886;49.722;8.612;2023-03-12T02:30:08;5.47;;;3.23;;
5722;SDS011;2886;49.722;8.612;2023-03-12T02:32:35;6.40;;;3.70;;
5722;SDS011;2886;49.722;8.612;2023-03-12T02:35:03;3.63;;;2.87;;
5722;SDS011;2886;49.722;8.612;2023-03-12T02:37:29;4.13;;;2.77;;
5722;SDS011;2886;49.722;8.612;2023-03-12T02:39:58;5.70;;;3.90;;
5722;SDS011;2886;49.722;8.612;2023-03-12T02:42:29;4.60;;;2.60;;
5722;SDS011;2886;49.722;8.612;2023-03-12T02:44:56;10.07;;;3.43;;
5722;SDS011;2886;49.722;8.612;2023-03-12T02:47:22;5.27;;;2.93;;
5722;SDS011;2886;49.722;8.612;2023-03-12T02:49:48;3.50;;;2.70;;
5722;SDS011;2886;49.722;8.612;2023-03-12T02:52:13;3.13;;;2.83;;
5722;SDS011;2886;49.722;8.612;2023-03-12T02:54:39;4.30;;;2.57;;
5722;SDS011;2886;49.722;8.612;2023-03-12T02:57:06;6.33;;;2.77;;
5722;SDS011;2886;49.722;8.612;2023-03-12T02:59:32;4.73;;;3.20;;
5722;SDS011;2886;49.722;8.612;2023-03-12T03:01:59;6.00;;;2.80;;
5722;SDS011;2886;49.722;8.612;2023-03-12T03:04:29;4.60;;;2.50;;
5722;SDS011;2886;49.722;8.612;2023-03-12T03:06:55;3.40;;;2.60;;
5722;SDS011;2886;49.722;8.612;2023-03-12T03:09:21;5.13;;;2.40;;
5722;SDS011;2886;49.722;8.612;2023-03-12T03:11:48;6.20;;;2.60;;
5722;SDS011;2886;49.722;8.612;2023-03-12T03:14:14;2.97;;;2.60;;
5722;SDS011;2886;49.722;8.612;2023-03-12T03:16:40;5.23;;;2.93;;
5722;SDS011;2886;49.722;8.612;2023-03-12T03:19:06;6.27;;;3.03;;
5722;SDS011;2886;49.722;8.612;2023-03-12T03:21:32;3.20;;;2.83;;
5722;SDS011;2886;49.722;8.612;2023-03-12T03:23:59;3.40;;;3.00;;
5722;SDS011;2886;49.722;8.612;2023-03-12T03:26:25;7.13;;;3.77;;
5722;SDS011;2886;49.722;8.612;2023-03-12T03:28:50;3.80;;;2.70;;
5722;SDS011;2886;49.722;8.612;2023-03-12T03:31:16;3.70;;;2.97;;
5722;SDS011;2886;49.722;8.612;2023-03-12T03:33:42;2.63;;;2.43;;
5722;SDS011;2886;49.722;8.612;2023-03-12T03:36:09;5.50;;;2.80;;
5722;SDS011;2886;49.722;8.612;2023-03-12T03:38:37;5.27;;;2.57;;
5722;SDS011;2886;49.722;8.612;2023-03-12T03:41:03;4.20;;;3.00;;
5722;SDS011;2886;49.722;8.612;2023-03-12T03:43:29;4.20;;;2.67;;
5722;SDS011;2886;49.722;8.612;2023-03-12T03:45:58;5.50;;;2.77;;
5722;SDS011;2886;49.722;8.612;2023-03-12T03:48:26;23.67;;;11.70;;
5722;SDS011;2886;49.722;8.612;2023-03-12T03:50:52;3.27;;;2.70;;
5722;SDS011;2886;49.722;8.612;2023-03-12T03:53:18;2.73;;;2.40;;
5722;SDS011;2886;49.722;8.612;2023-03-12T03:55:45;5.30;;;2.67;;
5722;SDS011;2886;49.722;8.612;2023-03-12T03:58:11;3.77;;;2.20;;
5722;SDS011;2886;49.722;8.612;2023-03-12T04:00:37;3.00;;;2.00;;
5722;SDS011;2886;49.722;8.612;2023-03-12T04:03:02;7.50;;;2.87;;
5722;SDS011;2886;49.722;8.612;2023-03-12T04:05:28;2.43;;;2.23;;
5722;SDS011;2886;49.722;8.612;2023-03-12T04:07:54;2.40;;;2.10;;
5722;SDS011;2886;49.722;8.612;2023-03-12T04:10:21;5.80;;;2.60;;
5722;SDS011;2886;49.722;8.612;2023-03-12T04:12:48;4.83;;;2.53;;
5722;SDS011;2886;49.722;8.612;2023-03-12T04:15:15;3.37;;;2.13;;
5722;SDS011;2886;49.722;8.612;2023-03-12T04:17:41;3.60;;;2.70;;
5722;SDS011;2886;49.722;8.612;2023-03-12T04:20:07;2.83;;;2.20;;
5722;SDS011;2886;49.722;8.612;2023-03-12T04:22:34;2.90;;;2.30;;
5722;SDS011;2886;49.722;8.612;2023-03-12T04:25:00;4.30;;;2.93;;
5722;SDS011;2886;49.722;8.612;2023-03-12T04:27:26;3.90;;;2.90;;
5722;SDS011;2886;49.722;8.612;2023-03-12T04:29:52;4.00;;;2.20;;
5722;SDS011;2886;49.722;8.612;2023-03-12T04:32:17;3.97;;;3.27;;
5722;SDS011;2886;49.722;8.612;2023-03-12T04:34:43;6.73;;;3.63;;
5722;SDS011;2886;49.722;8.612;2023-03-12T04:37:09;6.57;;;3.33;;
5722;SDS011;2886;49.722;8.612;2023-03-12T04:39:41;2.87;;;2.53;;
5722;SDS011;2886;49.722;8.612;2023-03-12T04:42:08;5.97;;;2.97;;
5722;SDS011;2886;49.722;8.612;2023-03-12T04:47:20;4.00;;;2.40;;
5722;SDS011;2886;49.722;8.612;2023-03-12T04:49:46;5.10;;;2.50;;
5722;SDS011;2886;49.722;8.612;2023-03-12T04:52:12;8.00;;;2.37;;
5722;SDS011;2886;49.722;8.612;2023-03-12T04:54:38;2.83;;;1.90;;
5722;SDS011;2886;49.722;8.612;2023-03-12T04:57:04;8.93;;;1.97;;
5722;SDS011;2886;49.722;8.612;2023-03-12T04:59:30;2.50;;;2.00;;
5722;SDS011;2886;49.722;8.612;2023-03-12T05:01:55;3.00;;;1.80;;
5722;SDS011;2886;49.722;8.612;2023-03-12T05:04:21;3.83;;;2.27;;
5722;SDS011;2886;49.722;8.612;2023-03-12T05:06:47;4.60;;;1.93;;
5722;SDS011;2886;49.722;8.612;2023-03-12T05:09:12;3.97;;;2.00;;
5722;SDS011;2886;49.722;8.612;2023-03-12T05:11:38;2.23;;;2.00;;
5722;SDS011;2886;49.722;8.612;2023-03-12T05:14:03;3.47;;;1.97;;
5722;SDS011;2886;49.722;8.612;2023-03-12T05:16:29;2.33;;;1.57;;
5722;SDS011;2886;49.722;8.612;2023-03-12T05:18:55;4.20;;;1.70;;
5722;SDS011;2886;49.722;8.612;2023-03-12T05:21:20;1.70;;;1.53;;
5722;SDS011;2886;49.722;8.612;2023-03-12T05:23:47;2.93;;;1.90;;
5722;SDS011;2886;49.722;8.612;2023-03-12T05:26:23;6.40;;;2.00;;
5722;SDS011;2886;49.722;8.612;2023-03-12T05:28:51;1.60;;;1.50;;
5722;SDS011;2886;49.722;8.612;2023-03-12T05:31:19;5.20;;;2.17;;
5722;SDS011;2886;49.722;8.612;2023-03-12T05:33:45;3.57;;;2.10;;
5722;SDS011;2886;49.722;8.612;2023-03-12T05:36:11;4.67;;;2.47;;
5722;SDS011;2886;49.722;8.612;2023-03-12T05:38:38;3.27;;;2.63;;
5722;SDS011;2886;49.722;8.612;2023-03-12T05:41:04;5.67;;;2.70;;
5722;SDS011;2886;49.722;8.612;2023-03-12T05:43:30;6.40;;;3.60;;
5722;SDS011;2886;49.722;8.612;2023-03-12T05:45:59;7.60;;;3.47;;
5722;SDS011;2886;49.722;8.612;2023-03-12T05:48:26;5.97;;;3.17;;
5722;SDS011;2886;49.722;8.612;2023-03-12T05:50:52;7.03;;;3.70;;
5722;SDS011;2886;49.722;8.612;2023-03-12T05:53:18;3.90;;;2.87;;
5722;SDS011;2886;49.722;8.612;2023-03-12T05:55:43;3.40;;;3.10;;
5722;SDS011;2886;49.722;8.612;2023-03-12T05:58:09;3.70;;;3.17;;
5722;SDS011;2886;49.722;8.612;2023-03-12T06:00:35;4.97;;;3.10;;
5722;SDS011;2886;49.722;8.612;2023-03-12T06:03:05;8.47;;;3.13;;
5722;SDS011;2886;49.722;8.612;2023-03-12T06:05:31;4.00;;;2.90;;
5722;SDS011;2886;49.722;8.612;2023-03-12T06:07:58;8.53;;;3.60;;
5722;SDS011;2886;49.722;8.612;2023-03-12T06:10:24;7.17;;;3.40;;
5722;SDS011;2886;49.722;8.612;2023-03-12T06:12:49;5.93;;;3.10;;
5722;SDS011;2886;49.722;8.612;2023-03-12T06:15:16;6.57;;;3.20;;
5722;SDS011;2886;49.722;8.612;2023-03-12T06:17:42;4.33;;;3.10;;
5722;SDS011;2886;49.722;8.612;2023-03-12T06:20:08;2.90;;;2.33;;
5722;SDS011;2886;49.722;8.612;2023-03-12T06:22:34;9.23;;;3.10;;
5722;SDS011;2886;49.722;8.612;2023-03-12T06:25:00;2.83;;;2.50;;
5722;SDS011;2886;49.722;8.612;2023-03-12T06:27:26;3.17;;;2.40;;
5722;SDS011;2886;49.722;8.612;2023-03-12T06:29:57;6.10;;;2.57;;
5722;SDS011;2886;49.722;8.612;2023-03-12T06:32:23;3.27;;;2.87;;
5722;SDS011;2886;49.722;8.612;2023-03-12T06:34:50;4.20;;;3.00;;
5722;SDS011;2886;49.722;8.612;2023-03-12T06:37:15;3.23;;;2.60;;
5722;SDS011;2886;49.722;8.612;2023-03-12T06:39:41;4.13;;;2.33;;
5722;SDS011;2886;49.722;8.612;2023-03-12T06:42:06;5.83;;;2.57;;
5722;SDS011;2886;49.722;8.612;2023-03-12T06:44:32;2.93;;;2.13;;
5722;SDS011;2886;49.722;8.612;2023-03-12T06:46:58;3.53;;;2.70;;
5722;SDS011;2886;49.722;8.612;2023-03-12T06:49:24;5.10;;;2.50;;
5722;SDS011;2886;49.722;8.612;2023-03-12T06:51:52;4.90;;;2.63;;
5722;SDS011;2886;49.722;8.612;2023-03-12T06:54:18;8.00;;;2.70;;
5722;SDS011;2886;49.722;8.612;2023-03-12T06:56:44;6.50;;;2.47;;
5722;SDS011;2886;49.722;8.612;2023-03-12T06:59:10;6.67;;;2.40;;
5722;SDS011;2886;49.722;8.612;2023-03-12T07:01:35;2.70;;;2.07;;
5722;SDS011;2886;49.722;8.612;2023-03-12T07:04:01;5.70;;;2.10;;
5722;SDS011;2886;49.722;8.612;2023-03-12T07:06:27;8.07;;;2.70;;
5722;SDS011;2886;49.722;8.612;2023-03-12T07:08:52;9.40;;;3.40;;
5722;SDS011;2886;49.722;8.612;2023-03-12T07:11:18;4.47;;;2.90;;
5722;SDS011;2886;49.722;8.612;2023-03-12T07:13:44;4.50;;;2.90;;
5722;SDS011;2886;49.722;8.612;2023-03-12T07:16:10;4.60;;;2.60;;
5722;SDS011;2886;49.722;8.612;2023-03-12T07:18:36;4.00;;;3.20;;
5722;SDS011;2886;49.722;8.612;2023-03-12T07:21:02;5.83;;;3.00;;
5722;SDS011;2886;49.722;8.612;2023-03-12T07:23:28;8.13;;;3.00;;
5722;SDS011;2886;49.722;8.612;2023-03-12T07:25:53;4.90;;;2.87;;
5722;SDS011;2886;49.722;8.612;2023-03-12T07:28:19;4.90;;;3.17;;
5722;SDS011;2886;49.722;8.612;2023-03-12T07:30:45;6.00;;;3.30;;
5722;SDS011;2886;49.722;8.612;2023-03-12T07:33:14;5.40;;;3.57;;
5722;SDS011;2886;49.722;8.612;2023-03-12T07:35:42;5.80;;;3.53;;
5722;SDS011;2886;49.722;8.612;2023-03-12T07:38:07;11.90;;;3.60;;
5722;SDS011;2886;49.722;8.612;2023-03-12T07:40:34;3.20;;;2.77;;
5722;SDS011;2886;49.722;8.612;2023-03-12T07:43:00;3.90;;;3.40;;
5722;SDS011;2886;49.722;8.612;2023-03-12T07:45:26;6.73;;;3.70;;
5722;SDS011;2886;49.722;8.612;2023-03-12T07:47:52;7.70;;;4.23;;
5722;SDS011;2886;49.722;8.612;2023-03-12T07:50:18;5.40;;;3.87;;
5722;SDS011;2886;49.722;8.612;2023-03-12T07:52:44;8.20;;;4.93;;
5722;SDS011;2886;49.722;8.612;2023-03-12T07:55:11;8.00;;;4.30;;
5722;SDS011;2886;49.722;8.612;2023-03-12T07:57:37;9.03;;;4.30;;
5722;SDS011;2886;49.722;8.612;2023-03-12T08:00:03;9.80;;;5.00;;
5722;SDS011;2886;49.722;8.612;2023-03-12T08:02:32;6.70;;;4.37;;
5722;SDS011;2886;49.722;8.612;2023-03-12T08:04:58;6.03;;;3.50;;
5722;SDS011;2886;49.722;8.612;2023-03-12T08:07:24;6.50;;;4.50;;
5722;SDS011;2886;49.722;8.612;2023-03-12T08:09:51;11.40;;;4.37;;
5722;SDS011;2886;49.722;8.612;2023-03-12T08:12:17;6.73;;;4.20;;
5722;SDS011;2886;49.722;8.612;2023-03-12T08:14:42;8.90;;;5.30;;
5722;SDS011;2886;49.722;8.612;2023-03-12T08:17:08;8.30;;;4.37;;
5722;SDS011;2886;49.722;8.612;2023-03-12T08:19:35;10.43;;;4.83;;
5722;SDS011;2886;49.722;8.612;2023-03-12T08:22:01;7.73;;;4.60;;
5722;SDS011;2886;49.722;8.612;2023-03-12T08:24:27;9.00;;;5.10;;
5722;SDS011;2886;49.722;8.612;2023-03-12T08:26:52;9.10;;;5.90;;
5722;SDS011;2886;49.722;8.612;2023-03-12T08:29:19;6.40;;;4.90;;
5722;SDS011;2886;49.722;8.612;2023-03-12T08:31:44;9.23;;;6.13;;
5722;SDS011;2886;49.722;8.612;2023-03-12T08:34:10;12.17;;;5.90;;
5722;SDS011;2886;49.722;8.612;2023-03-12T08:36:36;9.80;;;5.80;;
5722;SDS011;2886;49.722;8.612;2023-03-12T08:39:02;9.87;;;6.27;;
5722;SDS011;2886;49.722;8.612;2023-03-12T08:41:28;10.17;;;6.60;;
5722;SDS011;2886;49.722;8.612;2023-03-12T08:43:54;9.67;;;6.20;;
5722;SDS011;2886;49.722;8.612;2023-03-12T08:46:20;11.90;;;6.70;;
5722;SDS011;2886;49.722;8.612;2023-03-12T08:48:46;12.23;;;7.60;;
5722;SDS011;2886;49.722;8.612;2023-03-12T08:51:11;13.60;;;6.10;;
5722;SDS011;2886;49.722;8.612;2023-03-12T08:53:37;11.20;;;6.27;;
5722;SDS011;2886;49.722;8.612;2023-03-12T08:56:03;11.90;;;5.77;;
5722;SDS011;2886;49.722;8.612;2023-03-12T08:58:30;12.83;;;6.20;;
5722;SDS011;2886;49.722;8.612;2023-03-12T09:00:56;15.37;;;7.00;;
5722;SDS011;2886;49.722;8.612;2023-03-12T09:03:22;12.17;;;6.73;;
5722;SDS011;2886;49.722;8.612;2023-03-12T09:05:49;15.40;;;6.90;;
5722;SDS011;2886;49.722;8.612;2023-03-12T09:08:15;7.67;;;5.87;;
5722;SDS011;2886;49.722;8.612;2023-03-12T09:10:46;9.53;;;5.70;;
5722;SDS011;2886;49.722;8.612;2023-03-12T09:13:14;11.43;;;6.67;;
5722;SDS011;2886;49.722;8.612;2023-03-12T09:15:40;13.17;;;6.70;;
5722;SDS011;2886;49.722;8.612;2023-03-12T09:18:05;8.20;;;5.50;;
5722;SDS011;2886;49.722;8.612;2023-03-12T09:20:31;14.13;;;7.10;;
5722;SDS011;2886;49.722;8.612;2023-03-12T09:22:57;9.67;;;5.97;;
5722;SDS011;2886;49.722;8.612;2023-03-12T09:25:22;10.00;;;5.63;;
5722;SDS011;2886;49.722;8.612;2023-03-12T09:27:48;12.43;;;5.73;;
5722;SDS011;2886;49.722;8.612;2023-03-12T09:30:16;9.47;;;5.70;;
5722;SDS011;2886;49.722;8.612;2023-03-12T09:32:43;9.97;;;5.93;;
5722;SDS011;2886;49.722;8.612;2023-03-12T09:35:10;9.73;;;5.43;;
5722;SDS011;2886;49.722;8.612;2023-03-12T09:37:37;9.80;;;5.97;;
5722;SDS011;2886;49.722;8.612;2023-03-12T09:40:03;8.07;;;5.73;;
5722;SDS011;2886;49.722;8.612;2023-03-12T09:42:42;10.83;;;6.10;;
5722;SDS011;2886;49.722;8.612;2023-03-12T09:45:16;9.20;;;5.80;;
5722;SDS011;2886;49.722;8.612;2023-03-12T09:47:56;9.90;;;5.83;;
5722;SDS011;2886;49.722;8.612;2023-03-12T09:50:31;9.10;;;5.63;;
5722;SDS011;2886;49.722;8.612;2023-03-12T09:53:01;9.77;;;5.87;;
5722;SDS011;2886;49.722;8.612;2023-03-12T09:55:36;13.97;;;5.23;;
5722;SDS011;2886;49.722;8.612;2023-03-12T09:58:08;6.67;;;5.30;;
5722;SDS011;2886;49.722;8.612;2023-03-12T10:00:46;8.40;;;5.57;;
5722;SDS011;2886;49.722;8.612;2023-03-12T10:03:18;9.50;;;6.00;;
5722;SDS011;2886;49.722;8.612;2023-03-12T10:08:55;7.50;;;5.30;;
5722;SDS011;2886;49.722;8.612;2023-03-12T10:23:06;9.50;;;5.70;;
5722;SDS011;2886;49.722;8.612;2023-03-12T10:28:18;23.47;;;6.37;;
5722;SDS011;2886;49.722;8.612;2023-03-12T10:31:14;8.77;;;5.80;;
5722;SDS011;2886;49.722;8.612;2023-03-12T10:33:55;10.27;;;5.70;;
5722;SDS011;2886;49.722;8.612;2023-03-12T10:36:24;7.50;;;5.60;;
5722;SDS011;2886;49.722;8.612;2023-03-12T10:38:57;12.30;;;6.37;;
5722;SDS011;2886;49.722;8.612;2023-03-12T10:41:24;8.80;;;6.50;;
5722;SDS011;2886;49.722;8.612;2023-03-12T10:43:54;10.97;;;6.97;;
5722;SDS011;2886;49.722;8.612;2023-03-12T10:46:29;9.97;;;6.40;;
5722;SDS011;2886;49.722;8.612;2023-03-12T10:52:08;11.10;;;6.40;;
5722;SDS011;2886;49.722;8.612;2023-03-12T10:54:44;13.93;;;7.23;;
5722;SDS011;2886;49.722;8.612;2023-03-12T10:57:12;12.53;;;7.03;;
5722;SDS011;2886;49.722;8.612;2023-03-12T10:59:43;13.90;;;7.50;;
5722;SDS011;2886;49.722;8.612;2023-03-12T11:05:21;10.50;;;7.40;;
5722;SDS011;2886;49.722;8.612;2023-03-12T11:07:53;14.60;;;7.73;;
5722;SDS011;2886;49.722;8.612;2023-03-12T11:16:00;9.57;;;7.40;;
5722;SDS011;2886;49.722;8.612;2023-03-12T11:19:00;10.70;;;6.47;;
5722;SDS011;2886;49.722;8.612;2023-03-12T11:21:30;14.03;;;6.40;;
5722;SDS011;2886;49.722;8.612;2023-03-12T11:24:06;16.77;;;8.00;;
5722;SDS011;2886;49.722;8.612;2023-03-12T11:26:49;12.87;;;7.47;;
5722;SDS011;2886;49.722;8.612;2023-03-12T11:31:54;12.23;;;7.10;;
5722;SDS011;2886;49.722;8.612;2023-03-12T11:34:25;14.90;;;6.83;;
5722;SDS011;2886;49.722;8.612;2023-03-12T11:37:13;8.93;;;5.77;;
5722;SDS011;2886;49.722;8.612;2023-03-12T11:45:39;11.20;;;7.10;;
5722;SDS011;2886;49.722;8.612;2023-03-12T11:54:05;11.00;;;6.93;;
5722;SDS011;2886;49.722;8.612;2023-03-12T11:56:52;10.17;;;6.90;;
5722;SDS011;2886;49.722;8.612;2023-03-12T12:01:57;13.00;;;7.40;;
5722;SDS011;2886;49.722;8.612;2023-03-12T12:07:07;11.70;;;7.00;;
5722;SDS011;2886;49.722;8.612;2023-03-12T12:09:58;14.40;;;8.30;;
5722;SDS011;2886;49.722;8.612;2023-03-12T12:19:09;7.33;;;5.80;;
5722;SDS011;2886;49.722;8.612;2023-03-12T12:40:49;10.30;;;6.63;;
5722;SDS011;2886;49.722;8.612;2023-03-12T12:43:29;11.10;;;7.40;;
5722;SDS011;2886;49.722;8.612;2023-03-12T12:48:45;12.40;;;6.27;;
5722;SDS011;2886;49.722;8.612;2023-03-12T12:51:15;15.60;;;7.50;;
5722;SDS011;2886;49.722;8.612;2023-03-12T12:53:48;9.40;;;6.23;;
5722;SDS011;2886;49.722;8.612;2023-03-12T13:01:35;11.30;;;5.93;;
5722;SDS011;2886;49.722;8.612;2023-03-12T13:06:58;9.37;;;6.50;;
5722;SDS011;2886;49.722;8.612;2023-03-12T13:09:35;11.40;;;6.27;;
5722;SDS011;2886;49.722;8.612;2023-03-12T13:12:35;12.40;;;6.80;;
5722;SDS011;2886;49.722;8.612;2023-03-12T13:14:53;10.63;;;6.10;;
5722;SDS011;2886;49.722;8.612;2023-03-12T13:20:18;10.47;;;6.53;;
5722;SDS011;2886;49.722;8.612;2023-03-12T13:33:46;12.60;;;5.50;;
5722;SDS011;2886;49.722;8.612;2023-03-12T13:41:35;10.13;;;6.37;;
5722;SDS011;2886;49.722;8.612;2023-03-12T13:54:34;13.57;;;5.87;;
5722;SDS011;2886;49.722;8.612;2023-03-12T13:57:51;10.03;;;5.67;;
5722;SDS011;2886;49.722;8.612;2023-03-12T14:00:10;8.63;;;4.80;;
5722;SDS011;2886;49.722;8.612;2023-03-12T14:02:44;11.97;;;5.60;;
5722;SDS011;2886;49.722;8.612;2023-03-12T14:05:17;11.63;;;6.00;;
5722;SDS011;2886;49.722;8.612;2023-03-12T14:13:41;8.77;;;6.27;;
5722;SDS011;2886;49.722;8.612;2023-03-12T14:18:52;9.37;;;5.40;;
5722;SDS011;2886;49.722;8.612;2023-03-12T14:21:18;11.20;;;4.83;;
5722;SDS011;2886;49.722;8.612;2023-03-12T14:23:52;13.90;;;4.90;;
5722;SDS011;2886;49.722;8.612;2023-03-12T14:26:23;11.63;;;3.80;;
5722;SDS011;2886;49.722;8.612;2023-03-12T14:28:58;13.47;;;3.87;;
5722;SDS011;2886;49.722;8.612;2023-03-12T14:31:28;8.40;;;2.57;;
5722;SDS011;2886;49.722;8.612;2023-03-12T14:39:35;20.20;;;3.50;;
5722;SDS011;2886;49.722;8.612;2023-03-12T14:42:07;10.97;;;3.73;;
5722;SDS011;2886;49.722;8.612;2023-03-12T14:44:35;12.10;;;3.03;;
5722;SDS011;2886;49.722;8.612;2023-03-12T14:47:03;10.17;;;2.20;;
5722;SDS011;2886;49.722;8.612;2023-03-12T14:49:45;10.47;;;3.77;;
5722;SDS011;2886;49.722;8.612;2023-03-12T14:52:11;12.83;;;3.67;;
5722;SDS011;2886;49.722;8.612;2023-03-12T14:54:38;7.13;;;2.90;;
5722;SDS011;2886;49.722;8.612;2023-03-12T14:57:18;9.53;;;2.87;;
5722;SDS011;2886;49.722;8.612;2023-03-12T14:59:50;7.80;;;3.23;;
5722;SDS011;2886;49.722;8.612;2023-03-12T15:02:18;11.93;;;3.30;;
5722;SDS011;2886;49.722;8.612;2023-03-12T15:04:44;15.27;;;3.40;;
5722;SDS011;2886;49.722;8.612;2023-03-12T15:07:12;10.60;;;3.60;;
5722;SDS011;2886;49.722;8.612;2023-03-12T15:09:42;12.33;;;4.63;;
5722;SDS011;2886;49.722;8.612;2023-03-12T15:12:20;12.07;;;2.40;;
5722;SDS011;2886;49.722;8.612;2023-03-12T15:15:02;18.20;;;3.50;;
5722;SDS011;2886;49.722;8.612;2023-03-12T15:17:33;6.70;;;2.60;;
5722;SDS011;2886;49.722;8.612;2023-03-12T15:20:00;9.10;;;3.00;;
5722;SDS011;2886;49.722;8.612;2023-03-12T15:22:29;15.10;;;3.37;;
5722;SDS011;2886;49.722;8.612;2023-03-12T15:25:00;14.53;;;3.00;;
5722;SDS011;2886;49.722;8.612;2023-03-12T15:27:44;8.93;;;2.43;;
5722;SDS011;2886;49.722;8.612;2023-03-12T15:30:28;11.03;;;2.57;;
5722;SDS011;2886;49.722;8.612;2023-03-12T15:33:04;9.60;;;3.40;;
5722;SDS011;2886;49.722;8.612;2023-03-12T15:35:32;14.67;;;3.80;;
5722;SDS011;2886;49.722;8.612;2023-03-12T15:37:58;12.43;;;3.10;;
5722;SDS011;2886;49.722;8.612;2023-03-12T15:40:25;17.60;;;4.97;;
5722;SDS011;2886;49.722;8.612;2023-03-12T15:42:52;7.03;;;2.80;;
5722;SDS011;2886;49.722;8.612;2023-03-12T15:47:47;10.00;;;3.10;;
5722;SDS011;2886;49.722;8.612;2023-03-12T15:50:21;7.77;;;2.27;;
5722;SDS011;2886;49.722;8.612;2023-03-12T15:55:26;11.30;;;2.47;;
5722;SDS011;2886;49.722;8.612;2023-03-12T15:57:57;6.23;;;2.73;;
5722;SDS011;2886;49.722;8.612;2023-03-12T16:05:34;8.87;;;3.20;;
5722;SDS011;2886;49.722;8.612;2023-03-12T16:08:24;17.13;;;3.10;;
5722;SDS011;2886;49.722;8.612;2023-03-12T16:10:53;9.77;;;2.67;;
5722;SDS011;2886;49.722;8.612;2023-03-12T16:13:21;22.93;;;3.37;;
5722;SDS011;2886;49.722;8.612;2023-03-12T16:15:52;12.50;;;2.70;;
5722;SDS011;2886;49.722;8.612;2023-03-12T16:18:19;8.93;;;2.87;;
5722;SDS011;2886;49.722;8.612;2023-03-12T16:20:47;9.93;;;2.67;;
5722;SDS011;2886;49.722;8.612;2023-03-12T16:23:13;12.70;;;2.60;;
5722;SDS011;2886;49.722;8.612;2023-03-12T16:25:49;6.97;;;2.37;;
5722;SDS011;2886;49.722;8.612;2023-03-12T16:28:18;9.90;;;2.60;;
5722;SDS011;2886;49.722;8.612;2023-03-12T16:30:44;13.10;;;2.30;;
5722;SDS011;2886;49.722;8.612;2023-03-12T16:33:11;11.20;;;2.70;;
5722;SDS011;2886;49.722;8.612;2023-03-12T16:35:38;13.83;;;3.00;;
5722;SDS011;2886;49.722;8.612;2023-03-12T16:38:04;11.27;;;3.20;;
5722;SDS011;2886;49.722;8.612;2023-03-12T16:40:32;15.93;;;5.47;;
5722;SDS011;2886;49.722;8.612;2023-03-12T16:42:59;8.40;;;3.00;;
5722;SDS011;2886;49.722;8.612;2023-03-12T16:45:27;12.97;;;3.47;;
5722;SDS011;2886;49.722;8.612;2023-03-12T16:47:58;8.07;;;2.33;;
5722;SDS011;2886;49.722;8.612;2023-03-12T16:50:26;10.57;;;3.10;;
5722;SDS011;2886;49.722;8.612;2023-03-12T16:52:52;16.40;;;3.73;;
5722;SDS011;2886;49.722;8.612;2023-03-12T16:55:19;8.63;;;2.60;;
5722;SDS011;2886;49.722;8.612;2023-03-12T16:57:50;9.43;;;2.40;;
5722;SDS011;2886;49.722;8.612;2023-03-12T17:00:19;11.43;;;3.67;;
5722;SDS011;2886;49.722;8.612;2023-03-12T17:02:51;10.47;;;3.07;;
5722;SDS011;2886;49.722;8.612;2023-03-12T17:05:22;7.20;;;2.10;;
5722;SDS011;2886;49.722;8.612;2023-03-12T17:07:48;12.70;;;2.70;;
5722;SDS011;2886;49.722;8.612;2023-03-12T17:10:14;12.90;;;2.93;;
5722;SDS011;2886;49.722;8.612;2023-03-12T17:12:40;16.50;;;3.30;;
5722;SDS011;2886;49.722;8.612;2023-03-12T17:15:10;9.40;;;2.77;;
5722;SDS011;2886;49.722;8.612;2023-03-12T17:17:37;10.90;;;3.30;;
5722;SDS011;2886;49.722;8.612;2023-03-12T17:20:03;12.50;;;2.77;;
5722;SDS011;2886;49.722;8.612;2023-03-12T17:22:32;13.40;;;3.30;;
5722;SDS011;2886;49.722;8.612;2023-03-12T17:24:58;14.63;;;3.37;;
5722;SDS011;2886;49.722;8.612;2023-03-12T17:27:23;20.03;;;3.20;;
5722;SDS011;2886;49.722;8.612;2023-03-12T17:29:49;11.17;;;4.17;;
5722;SDS011;2886;49.722;8.612;2023-03-12T17:32:15;8.87;;;3.20;;
5722;SDS011;2886;49.722;8.612;2023-03-12T17:34:40;14.20;;;4.20;;
5722;SDS011;2886;49.722;8.612;2023-03-12T17:37:06;14.43;;;4.03;;
5722;SDS011;2886;49.722;8.612;2023-03-12T17:39:33;11.30;;;3.20;;
5722;SDS011;2886;49.722;8.612;2023-03-12T17:41:59;15.93;;;4.50;;
5722;SDS011;2886;49.722;8.612;2023-03-12T17:44:25;11.30;;;3.33;;
5722;SDS011;2886;49.722;8.612;2023-03-12T17:46:56;14.17;;;2.83;;
5722;SDS011;2886;49.722;8.612;2023-03-12T17:49:22;11.23;;;2.90;;
5722;SDS011;2886;49.722;8.612;2023-03-12T17:51:48;11.53;;;2.83;;
5722;SDS011;2886;49.722;8.612;2023-03-12T17:54:13;9.47;;;2.70;;